sensor_id;sensor_type;location;lat;lon;timestamp;P1;durP1;ratioP1;P2;durP2;ratioP2
57401;SDS011;43226;51.110;6.998;2023-07-29T00:00:30;2.00;;;1.90;;
57401;SDS011;43226;51.110;6.998;2023-07-29T00:02:55;2.20;;;1.83;;
57401;SDS011;43226;51.110;6.998;2023-07-29T00:05:21;2.10;;;2.00;;
57401;SDS011;43226;51.110;6.998;2023-07-29T00:07:46;2.50;;;2.30;;
57401;SDS011;43226;51.110;6.998;2023-07-29T00:10:11;1.87;;;1.73;;
57401;SDS011;43226;51.110;6.998;2023-07-29T00:12:36;3.90;;;1.80;;
57401;SDS011;43226;51.110;6.998;2023-07-29T00:15:01;4.50;;;1.70;;
57401;SDS011;43226;51.110;6.998;2023-07-29T00:17:26;2.30;;;1.60;;
57401;SDS011;43226;51.110;6.998;2023-07-29T00:19:52;1.83;;;1.70;;
57401;SDS011;43226;51.110;6.998;2023-07-29T00:22:17;1.63;;;1.53;;
57401;SDS011;43226;51.110;6.998;2023-07-29T00:24:42;6.57;;;1.70;;
57401;SDS011;43226;51.110;6.998;2023-07-29T00:27:07;1.80;;;1.70;;
57401;SDS011;43226;51.110;6.998;2023-07-29T00:29:32;2.07;;;1.90;;
57401;SDS011;43226;51.110;6.998;2023-07-29T00:31:57;1.83;;;1.63;;
57401;SDS011;43226;51.110;6.998;2023-07-29T00:34:23;1.83;;;1.70;;
57401;SDS011;43226;51.110;6.998;2023-07-29T00:36:48;2.50;;;2.00;;
57401;SDS011;43226;51.110;6.998;2023-07-29T00:39:13;1.60;;;1.50;;
57401;SDS011;43226;51.110;6.998;2023-07-29T00:41:38;1.73;;;1.63;;
57401;SDS011;43226;51.110;6.998;2023-07-29T00:44:04;4.53;;;2.07;;
57401;SDS011;43226;51.110;6.998;2023-07-29T00:46:29;1.60;;;1.50;;
57401;SDS011;43226;51.110;6.998;2023-07-29T00:48:55;1.70;;;1.60;;
57401;SDS011;43226;51.110;6.998;2023-07-29T00:51:20;1.60;;;1.50;;
57401;SDS011;43226;51.110;6.998;2023-07-29T00:53:45;2.03;;;1.93;;
57401;SDS011;43226;51.110;6.998;2023-07-29T00:56:11;2.17;;;1.60;;
57401;SDS011;43226;51.110;6.998;2023-07-29T00:58:36;1.93;;;1.83;;
57401;SDS011;43226;51.110;6.998;2023-07-29T01:01:01;2.30;;;2.10;;
57401;SDS011;43226;51.110;6.998;2023-07-29T01:03:26;1.93;;;1.83;;
57401;SDS011;43226;51.110;6.998;2023-07-29T01:06:06;3.30;;;2.00;;
57401;SDS011;43226;51.110;6.998;2023-07-29T01:08:37;4.17;;;1.70;;
57401;SDS011;43226;51.110;6.998;2023-07-29T01:11:05;2.27;;;2.07;;
57401;SDS011;43226;51.110;6.998;2023-07-29T01:15:59;1.90;;;1.80;;
57401;SDS011;43226;51.110;6.998;2023-07-29T01:18:29;2.20;;;2.00;;
57401;SDS011;43226;51.110;6.998;2023-07-29T01:20:58;2.10;;;1.90;;
57401;SDS011;43226;51.110;6.998;2023-07-29T01:23:24;1.90;;;1.80;;
57401;SDS011;43226;51.110;6.998;2023-07-29T01:25:49;1.60;;;1.50;;
57401;SDS011;43226;51.110;6.998;2023-07-29T01:28:14;1.93;;;1.73;;
57401;SDS011;43226;51.110;6.998;2023-07-29T01:30:40;1.83;;;1.73;;
57401;SDS011;43226;51.110;6.998;2023-07-29T01:35:37;2.03;;;1.93;;
57401;SDS011;43226;51.110;6.998;2023-07-29T01:38:06;2.07;;;1.97;;
57401;SDS011;43226;51.110;6.998;2023-07-29T01:40:32;2.30;;;2.10;;
57401;SDS011;43226;51.110;6.998;2023-07-29T01:42:58;5.40;;;2.30;;
57401;SDS011;43226;51.110;6.998;2023-07-29T01:45:23;2.37;;;2.10;;
57401;SDS011;43226;51.110;6.998;2023-07-29T01:47:49;2.43;;;2.23;;
57401;SDS011;43226;51.110;6.998;2023-07-29T01:50:15;2.80;;;2.50;;
57401;SDS011;43226;51.110;6.998;2023-07-29T01:52:40;6.20;;;2.40;;
57401;SDS011;43226;51.110;6.998;2023-07-29T01:55:05;2.50;;;2.30;;
57401;SDS011;43226;51.110;6.998;2023-07-29T01:57:31;2.60;;;2.40;;
57401;SDS011;43226;51.110;6.998;2023-07-29T01:59:56;4.40;;;3.47;;
57401;SDS011;43226;51.110;6.998;2023-07-29T02:02:21;3.87;;;2.03;;
57401;SDS011;43226;51.110;6.998;2023-07-29T02:04:46;2.53;;;2.10;;
57401;SDS011;43226;51.110;6.998;2023-07-29T02:07:16;2.70;;;2.50;;
57401;SDS011;43226;51.110;6.998;2023-07-29T02:09:41;2.60;;;2.40;;
57401;SDS011;43226;51.110;6.998;2023-07-29T02:12:06;5.97;;;2.30;;
57401;SDS011;43226;51.110;6.998;2023-07-29T02:14:32;3.00;;;2.80;;
57401;SDS011;43226;51.110;6.998;2023-07-29T02:16:57;2.80;;;2.57;;
57401;SDS011;43226;51.110;6.998;2023-07-29T02:19:22;3.13;;;2.77;;
57401;SDS011;43226;51.110;6.998;2023-07-29T02:21:48;6.10;;;2.77;;
57401;SDS011;43226;51.110;6.998;2023-07-29T02:24:13;3.47;;;2.17;;
57401;SDS011;43226;51.110;6.998;2023-07-29T02:26:38;2.97;;;2.57;;
57401;SDS011;43226;51.110;6.998;2023-07-29T02:29:03;3.70;;;2.40;;
57401;SDS011;43226;51.110;6.998;2023-07-29T02:31:28;2.57;;;2.37;;
57401;SDS011;43226;51.110;6.998;2023-07-29T02:33:54;3.20;;;2.97;;
57401;SDS011;43226;51.110;6.998;2023-07-29T02:36:19;2.50;;;2.40;;
57401;SDS011;43226;51.110;6.998;2023-07-29T02:38:44;6.70;;;2.57;;
57401;SDS011;43226;51.110;6.998;2023-07-29T02:41:10;3.27;;;2.70;;
57401;SDS011;43226;51.110;6.998;2023-07-29T02:43:37;2.73;;;2.43;;
57401;SDS011;43226;51.110;6.998;2023-07-29T02:46:02;3.33;;;2.40;;
57401;SDS011;43226;51.110;6.998;2023-07-29T02:48:28;2.57;;;2.37;;
57401;SDS011;43226;51.110;6.998;2023-07-29T02:50:53;3.30;;;3.00;;
57401;SDS011;43226;51.110;6.998;2023-07-29T02:53:18;3.17;;;2.63;;
57401;SDS011;43226;51.110;6.998;2023-07-29T02:55:44;2.33;;;2.20;;
57401;SDS011;43226;51.110;6.998;2023-07-29T02:58:09;2.77;;;2.57;;
57401;SDS011;43226;51.110;6.998;2023-07-29T03:00:34;3.50;;;3.17;;
57401;SDS011;43226;51.110;6.998;2023-07-29T03:03:00;4.07;;;3.00;;
57401;SDS011;43226;51.110;6.998;2023-07-29T03:05:28;3.50;;;3.20;;
57401;SDS011;43226;51.110;6.998;2023-07-29T03:07:54;2.97;;;2.77;;
57401;SDS011;43226;51.110;6.998;2023-07-29T03:10:19;5.63;;;3.40;;
57401;SDS011;43226;51.110;6.998;2023-07-29T03:12:44;3.87;;;3.47;;
57401;SDS011;43226;51.110;6.998;2023-07-29T03:15:09;5.33;;;3.40;;
57401;SDS011;43226;51.110;6.998;2023-07-29T03:17:34;3.97;;;3.60;;
57401;SDS011;43226;51.110;6.998;2023-07-29T03:19:59;4.17;;;3.77;;
57401;SDS011;43226;51.110;6.998;2023-07-29T03:22:25;4.60;;;3.63;;
57401;SDS011;43226;51.110;6.998;2023-07-29T03:24:50;4.40;;;4.00;;
57401;SDS011;43226;51.110;6.998;2023-07-29T03:27:15;4.83;;;4.43;;
57401;SDS011;43226;51.110;6.998;2023-07-29T03:29:41;7.23;;;4.00;;
57401;SDS011;43226;51.110;6.998;2023-07-29T03:32:06;7.70;;;4.47;;
57401;SDS011;43226;51.110;6.998;2023-07-29T03:34:31;5.90;;;4.40;;
57401;SDS011;43226;51.110;6.998;2023-07-29T03:36:57;4.70;;;4.20;;
57401;SDS011;43226;51.110;6.998;2023-07-29T03:39:22;9.80;;;3.63;;
57401;SDS011;43226;51.110;6.998;2023-07-29T03:41:47;4.80;;;4.40;;
57401;SDS011;43226;51.110;6.998;2023-07-29T03:44:13;4.60;;;4.20;;
57401;SDS011;43226;51.110;6.998;2023-07-29T03:46:38;4.67;;;3.50;;
57401;SDS011;43226;51.110;6.998;2023-07-29T03:49:03;5.60;;;3.70;;
57401;SDS011;43226;51.110;6.998;2023-07-29T03:51:28;4.37;;;3.97;;
57401;SDS011;43226;51.110;6.998;2023-07-29T03:53:53;4.20;;;3.80;;
57401;SDS011;43226;51.110;6.998;2023-07-29T03:56:19;4.20;;;3.70;;
57401;SDS011;43226;51.110;6.998;2023-07-29T03:58:45;4.00;;;3.60;;
57401;SDS011;43226;51.110;6.998;2023-07-29T04:01:11;5.13;;;4.03;;
57401;SDS011;43226;51.110;6.998;2023-07-29T04:03:36;6.33;;;4.10;;
57401;SDS011;43226;51.110;6.998;2023-07-29T04:06:02;5.67;;;3.80;;
57401;SDS011;43226;51.110;6.998;2023-07-29T04:08:27;4.93;;;4.27;;
57401;SDS011;43226;51.110;6.998;2023-07-29T04:10:52;4.60;;;3.60;;
57401;SDS011;43226;51.110;6.998;2023-07-29T04:13:17;5.50;;;2.93;;
57401;SDS011;43226;51.110;6.998;2023-07-29T04:15:43;5.60;;;3.73;;
57401;SDS011;43226;51.110;6.998;2023-07-29T04:18:09;4.40;;;3.23;;
57401;SDS011;43226;51.110;6.998;2023-07-29T04:20:34;4.07;;;3.67;;
57401;SDS011;43226;51.110;6.998;2023-07-29T04:23:00;4.13;;;3.60;;
57401;SDS011;43226;51.110;6.998;2023-07-29T04:25:25;5.00;;;3.97;;
57401;SDS011;43226;51.110;6.998;2023-07-29T04:27:50;5.93;;;2.90;;
57401;SDS011;43226;51.110;6.998;2023-07-29T04:30:15;3.87;;;3.50;;
57401;SDS011;43226;51.110;6.998;2023-07-29T04:32:40;6.30;;;3.50;;
57401;SDS011;43226;51.110;6.998;2023-07-29T04:35:07;3.70;;;3.13;;
57401;SDS011;43226;51.110;6.998;2023-07-29T04:37:32;3.67;;;3.00;;
57401;SDS011;43226;51.110;6.998;2023-07-29T04:39:57;4.20;;;3.80;;
57401;SDS011;43226;51.110;6.998;2023-07-29T04:42:23;3.73;;;3.40;;
57401;SDS011;43226;51.110;6.998;2023-07-29T04:44:48;3.97;;;3.60;;
57401;SDS011;43226;51.110;6.998;2023-07-29T04:47:13;4.27;;;3.40;;
57401;SDS011;43226;51.110;6.998;2023-07-29T04:49:38;7.30;;;3.67;;
57401;SDS011;43226;51.110;6.998;2023-07-29T04:52:04;3.50;;;3.00;;
57401;SDS011;43226;51.110;6.998;2023-07-29T04:54:29;4.70;;;3.30;;
57401;SDS011;43226;51.110;6.998;2023-07-29T04:56:54;2.90;;;2.70;;
57401;SDS011;43226;51.110;6.998;2023-07-29T04:59:19;3.30;;;3.10;;
57401;SDS011;43226;51.110;6.998;2023-07-29T05:01:44;4.87;;;2.90;;
57401;SDS011;43226;51.110;6.998;2023-07-29T05:04:10;4.60;;;3.37;;
57401;SDS011;43226;51.110;6.998;2023-07-29T05:06:35;3.37;;;2.93;;
57401;SDS011;43226;51.110;6.998;2023-07-29T05:09:12;3.30;;;3.00;;
57401;SDS011;43226;51.110;6.998;2023-07-29T05:11:37;3.20;;;2.90;;
57401;SDS011;43226;51.110;6.998;2023-07-29T05:14:02;2.97;;;2.57;;
57401;SDS011;43226;51.110;6.998;2023-07-29T05:16:29;2.90;;;2.70;;
57401;SDS011;43226;51.110;6.998;2023-07-29T05:18:54;2.87;;;2.63;;
57401;SDS011;43226;51.110;6.998;2023-07-29T05:21:20;3.80;;;2.80;;
57401;SDS011;43226;51.110;6.998;2023-07-29T05:23:45;2.80;;;2.60;;
57401;SDS011;43226;51.110;6.998;2023-07-29T05:26:10;5.77;;;2.33;;
57401;SDS011;43226;51.110;6.998;2023-07-29T05:28:35;2.90;;;2.70;;
57401;SDS011;43226;51.110;6.998;2023-07-29T05:31:01;4.30;;;2.67;;
57401;SDS011;43226;51.110;6.998;2023-07-29T05:33:27;5.60;;;2.57;;
57401;SDS011;43226;51.110;6.998;2023-07-29T05:35:52;3.43;;;2.73;;
57401;SDS011;43226;51.110;6.998;2023-07-29T05:38:17;3.20;;;2.90;;
57401;SDS011;43226;51.110;6.998;2023-07-29T05:40:42;2.93;;;2.60;;
57401;SDS011;43226;51.110;6.998;2023-07-29T05:43:07;9.37;;;3.20;;
57401;SDS011;43226;51.110;6.998;2023-07-29T05:45:33;3.47;;;2.50;;
57401;SDS011;43226;51.110;6.998;2023-07-29T05:47:58;8.50;;;2.90;;
57401;SDS011;43226;51.110;6.998;2023-07-29T05:50:23;2.60;;;2.40;;
57401;SDS011;43226;51.110;6.998;2023-07-29T05:52:48;2.70;;;2.50;;
57401;SDS011;43226;51.110;6.998;2023-07-29T05:55:14;4.17;;;2.80;;
57401;SDS011;43226;51.110;6.998;2023-07-29T05:57:39;2.63;;;2.43;;
57401;SDS011;43226;51.110;6.998;2023-07-29T06:00:04;4.90;;;2.57;;
57401;SDS011;43226;51.110;6.998;2023-07-29T06:02:30;3.13;;;2.73;;
57401;SDS011;43226;51.110;6.998;2023-07-29T06:04:55;3.13;;;2.50;;
57401;SDS011;43226;51.110;6.998;2023-07-29T06:07:20;3.78;;;2.47;;
57401;SDS011;43226;51.110;6.998;2023-07-29T06:09:45;6.83;;;2.20;;
57401;SDS011;43226;51.110;6.998;2023-07-29T06:12:11;3.57;;;2.50;;
57401;SDS011;43226;51.110;6.998;2023-07-29T06:14:36;4.80;;;2.97;;
57401;SDS011;43226;51.110;6.998;2023-07-29T06:17:01;3.20;;;2.90;;
57401;SDS011;43226;51.110;6.998;2023-07-29T06:19:26;5.50;;;3.10;;
57401;SDS011;43226;51.110;6.998;2023-07-29T06:21:51;3.87;;;3.10;;
57401;SDS011;43226;51.110;6.998;2023-07-29T06:24:19;4.50;;;2.90;;
57401;SDS011;43226;51.110;6.998;2023-07-29T06:26:45;5.00;;;2.70;;
57401;SDS011;43226;51.110;6.998;2023-07-29T06:29:10;3.10;;;2.30;;
57401;SDS011;43226;51.110;6.998;2023-07-29T06:31:35;5.23;;;2.60;;
57401;SDS011;43226;51.110;6.998;2023-07-29T06:34:00;2.40;;;1.90;;
57401;SDS011;43226;51.110;6.998;2023-07-29T06:36:26;1.97;;;1.77;;
57401;SDS011;43226;51.110;6.998;2023-07-29T06:38:51;1.90;;;1.70;;
57401;SDS011;43226;51.110;6.998;2023-07-29T06:41:16;1.80;;;1.70;;
57401;SDS011;43226;51.110;6.998;2023-07-29T06:43:41;3.47;;;1.73;;
57401;SDS011;43226;51.110;6.998;2023-07-29T06:46:07;4.10;;;1.50;;
57401;SDS011;43226;51.110;6.998;2023-07-29T06:48:32;1.30;;;1.20;;
57401;SDS011;43226;51.110;6.998;2023-07-29T06:50:57;1.40;;;1.30;;
57401;SDS011;43226;51.110;6.998;2023-07-29T06:53:25;2.20;;;1.40;;
57401;SDS011;43226;51.110;6.998;2023-07-29T06:55:51;2.57;;;1.53;;
57401;SDS011;43226;51.110;6.998;2023-07-29T06:58:16;1.53;;;1.43;;
57401;SDS011;43226;51.110;6.998;2023-07-29T07:00:41;1.77;;;1.27;;
57401;SDS011;43226;51.110;6.998;2023-07-29T07:03:06;1.47;;;1.33;;
57401;SDS011;43226;51.110;6.998;2023-07-29T07:05:32;1.40;;;1.30;;
57401;SDS011;43226;51.110;6.998;2023-07-29T07:07:57;1.20;;;1.10;;
57401;SDS011;43226;51.110;6.998;2023-07-29T07:10:22;1.40;;;1.13;;
57401;SDS011;43226;51.110;6.998;2023-07-29T07:12:47;5.40;;;1.70;;
57401;SDS011;43226;51.110;6.998;2023-07-29T07:15:13;1.20;;;1.10;;
57401;SDS011;43226;51.110;6.998;2023-07-29T07:17:38;3.57;;;1.43;;
57401;SDS011;43226;51.110;6.998;2023-07-29T07:20:03;1.57;;;1.47;;
57401;SDS011;43226;51.110;6.998;2023-07-29T07:22:29;1.57;;;1.40;;
57401;SDS011;43226;51.110;6.998;2023-07-29T07:24:54;5.00;;;1.27;;
57401;SDS011;43226;51.110;6.998;2023-07-29T07:27:19;1.60;;;1.47;;
57401;SDS011;43226;51.110;6.998;2023-07-29T07:29:44;1.63;;;1.53;;
57401;SDS011;43226;51.110;6.998;2023-07-29T07:32:09;2.80;;;1.80;;
57401;SDS011;43226;51.110;6.998;2023-07-29T07:34:34;1.70;;;1.60;;
57401;SDS011;43226;51.110;6.998;2023-07-29T07:37:00;2.87;;;1.97;;
57401;SDS011;43226;51.110;6.998;2023-07-29T07:39:25;2.17;;;1.40;;
57401;SDS011;43226;51.110;6.998;2023-07-29T07:41:51;3.57;;;1.70;;
57401;SDS011;43226;51.110;6.998;2023-07-29T07:44:16;1.50;;;1.40;;
57401;SDS011;43226;51.110;6.998;2023-07-29T07:46:43;1.20;;;1.10;;
57401;SDS011;43226;51.110;6.998;2023-07-29T07:49:08;2.97;;;2.03;;
57401;SDS011;43226;51.110;6.998;2023-07-29T07:51:33;1.47;;;1.37;;
57401;SDS011;43226;51.110;6.998;2023-07-29T07:53:58;1.93;;;1.27;;
57401;SDS011;43226;51.110;6.998;2023-07-29T07:56:23;2.53;;;1.43;;
57401;SDS011;43226;51.110;6.998;2023-07-29T07:58:49;1.73;;;1.20;;
57401;SDS011;43226;51.110;6.998;2023-07-29T08:01:14;1.97;;;1.40;;
57401;SDS011;43226;51.110;6.998;2023-07-29T08:03:39;5.93;;;1.50;;
57401;SDS011;43226;51.110;6.998;2023-07-29T08:06:04;1.97;;;1.47;;
57401;SDS011;43226;51.110;6.998;2023-07-29T08:08:30;2.93;;;1.30;;
57401;SDS011;43226;51.110;6.998;2023-07-29T08:10:56;2.57;;;1.40;;
57401;SDS011;43226;51.110;6.998;2023-07-29T08:13:22;2.00;;;1.50;;
57401;SDS011;43226;51.110;6.998;2023-07-29T08:15:50;1.30;;;1.10;;
57401;SDS011;43226;51.110;6.998;2023-07-29T08:18:15;3.20;;;1.50;;
57401;SDS011;43226;51.110;6.998;2023-07-29T08:20:41;1.33;;;1.23;;
57401;SDS011;43226;51.110;6.998;2023-07-29T08:23:06;1.17;;;1.07;;
57401;SDS011;43226;51.110;6.998;2023-07-29T08:25:31;5.00;;;1.30;;
57401;SDS011;43226;51.110;6.998;2023-07-29T08:27:56;1.57;;;1.47;;
57401;SDS011;43226;51.110;6.998;2023-07-29T08:30:22;1.50;;;1.40;;
57401;SDS011;43226;51.110;6.998;2023-07-29T08:32:47;1.30;;;1.20;;
57401;SDS011;43226;51.110;6.998;2023-07-29T08:35:12;2.10;;;1.20;;
57401;SDS011;43226;51.110;6.998;2023-07-29T08:37:37;4.63;;;1.47;;
57401;SDS011;43226;51.110;6.998;2023-07-29T08:40:03;4.73;;;1.30;;
57401;SDS011;43226;51.110;6.998;2023-07-29T08:42:29;1.20;;;1.00;;
57401;SDS011;43226;51.110;6.998;2023-07-29T08:44:54;1.97;;;1.20;;
57401;SDS011;43226;51.110;6.998;2023-07-29T08:47:20;1.53;;;1.10;;
57401;SDS011;43226;51.110;6.998;2023-07-29T08:49:45;1.40;;;1.00;;
57401;SDS011;43226;51.110;6.998;2023-07-29T08:52:11;2.80;;;1.40;;
57401;SDS011;43226;51.110;6.998;2023-07-29T08:54:36;2.60;;;1.20;;
57401;SDS011;43226;51.110;6.998;2023-07-29T08:57:01;2.30;;;1.20;;
57401;SDS011;43226;51.110;6.998;2023-07-29T08:59:28;2.10;;;1.10;;
57401;SDS011;43226;51.110;6.998;2023-07-29T09:01:53;1.10;;;1.00;;
57401;SDS011;43226;51.110;6.998;2023-07-29T09:04:21;3.47;;;2.37;;
57401;SDS011;43226;51.110;6.998;2023-07-29T09:06:48;1.57;;;1.30;;
57401;SDS011;43226;51.110;6.998;2023-07-29T09:09:15;1.40;;;1.30;;
57401;SDS011;43226;51.110;6.998;2023-07-29T09:11:40;1.10;;;0.80;;
57401;SDS011;43226;51.110;6.998;2023-07-29T09:14:05;1.10;;;1.00;;
57401;SDS011;43226;51.110;6.998;2023-07-29T09:16:30;1.07;;;0.97;;
57401;SDS011;43226;51.110;6.998;2023-07-29T09:18:56;5.03;;;1.33;;
57401;SDS011;43226;51.110;6.998;2023-07-29T09:21:25;1.30;;;1.20;;
57401;SDS011;43226;51.110;6.998;2023-07-29T09:23:51;1.40;;;1.30;;
57401;SDS011;43226;51.110;6.998;2023-07-29T09:26:24;2.03;;;1.20;;
57401;SDS011;43226;51.110;6.998;2023-07-29T09:28:53;1.10;;;1.00;;
57401;SDS011;43226;51.110;6.998;2023-07-29T09:31:19;2.70;;;1.20;;
57401;SDS011;43226;51.110;6.998;2023-07-29T09:33:45;1.37;;;0.97;;
57401;SDS011;43226;51.110;6.998;2023-07-29T09:36:10;1.30;;;1.20;;
57401;SDS011;43226;51.110;6.998;2023-07-29T09:38:36;1.70;;;1.40;;
57401;SDS011;43226;51.110;6.998;2023-07-29T09:41:01;1.37;;;1.27;;
57401;SDS011;43226;51.110;6.998;2023-07-29T09:43:30;2.20;;;1.10;;
57401;SDS011;43226;51.110;6.998;2023-07-29T09:45:59;2.53;;;1.10;;
57401;SDS011;43226;51.110;6.998;2023-07-29T09:48:24;1.10;;;1.00;;
57401;SDS011;43226;51.110;6.998;2023-07-29T09:50:49;1.73;;;1.00;;
57401;SDS011;43226;51.110;6.998;2023-07-29T09:53:15;2.47;;;1.50;;
57401;SDS011;43226;51.110;6.998;2023-07-29T09:55:40;1.33;;;1.17;;
57401;SDS011;43226;51.110;6.998;2023-07-29T09:58:10;1.50;;;1.00;;
57401;SDS011;43226;51.110;6.998;2023-07-29T10:00:36;1.13;;;1.00;;
57401;SDS011;43226;51.110;6.998;2023-07-29T10:03:03;2.20;;;1.03;;
57401;SDS011;43226;51.110;6.998;2023-07-29T10:05:29;0.90;;;0.83;;
57401;SDS011;43226;51.110;6.998;2023-07-29T10:07:54;1.83;;;1.20;;
57401;SDS011;43226;51.110;6.998;2023-07-29T10:10:20;1.70;;;1.40;;
57401;SDS011;43226;51.110;6.998;2023-07-29T10:12:45;1.50;;;1.40;;
57401;SDS011;43226;51.110;6.998;2023-07-29T10:15:10;1.30;;;1.20;;
57401;SDS011;43226;51.110;6.998;2023-07-29T10:17:36;1.13;;;1.03;;
57401;SDS011;43226;51.110;6.998;2023-07-29T10:20:03;1.10;;;1.00;;
57401;SDS011;43226;51.110;6.998;2023-07-29T10:22:29;3.40;;;1.20;;
57401;SDS011;43226;51.110;6.998;2023-07-29T10:24:59;1.17;;;1.07;;
57401;SDS011;43226;51.110;6.998;2023-07-29T10:27:27;1.17;;;1.07;;
57401;SDS011;43226;51.110;6.998;2023-07-29T10:29:53;1.37;;;1.27;;
57401;SDS011;43226;51.110;6.998;2023-07-29T10:32:19;1.57;;;1.30;;
57401;SDS011;43226;51.110;6.998;2023-07-29T10:34:47;1.50;;;1.30;;
57401;SDS011;43226;51.110;6.998;2023-07-29T10:37:12;1.50;;;1.33;;
57401;SDS011;43226;51.110;6.998;2023-07-29T10:39:38;2.93;;;1.17;;
57401;SDS011;43226;51.110;6.998;2023-07-29T10:42:05;2.00;;;1.80;;
57401;SDS011;43226;51.110;6.998;2023-07-29T10:49:41;1.43;;;1.00;;
57401;SDS011;43226;51.110;6.998;2023-07-29T10:52:06;1.83;;;0.97;;
57401;SDS011;43226;51.110;6.998;2023-07-29T10:54:31;1.30;;;1.20;;
57401;SDS011;43226;51.110;6.998;2023-07-29T10:57:06;2.00;;;1.50;;
57401;SDS011;43226;51.110;6.998;2023-07-29T10:59:32;5.13;;;1.50;;
57401;SDS011;43226;51.110;6.998;2023-07-29T11:01:58;1.47;;;1.37;;
57401;SDS011;43226;51.110;6.998;2023-07-29T11:04:24;1.43;;;1.33;;
57401;SDS011;43226;51.110;6.998;2023-07-29T11:09:41;2.23;;;1.40;;
57401;SDS011;43226;51.110;6.998;2023-07-29T11:14:51;1.33;;;1.10;;
57401;SDS011;43226;51.110;6.998;2023-07-29T11:17:16;1.30;;;1.20;;
57401;SDS011;43226;51.110;6.998;2023-07-29T11:19:41;3.07;;;1.60;;
57401;SDS011;43226;51.110;6.998;2023-07-29T11:22:07;2.13;;;1.23;;
57401;SDS011;43226;51.110;6.998;2023-07-29T11:24:34;1.20;;;1.00;;
57401;SDS011;43226;51.110;6.998;2023-07-29T11:26:59;1.40;;;1.30;;
57401;SDS011;43226;51.110;6.998;2023-07-29T11:29:24;1.20;;;1.10;;
57401;SDS011;43226;51.110;6.998;2023-07-29T11:31:50;1.57;;;1.30;;
57401;SDS011;43226;51.110;6.998;2023-07-29T11:34:16;1.80;;;1.50;;
57401;SDS011;43226;51.110;6.998;2023-07-29T11:36:46;1.40;;;1.10;;
57401;SDS011;43226;51.110;6.998;2023-07-29T11:39:12;1.63;;;1.30;;
57401;SDS011;43226;51.110;6.998;2023-07-29T11:41:37;1.40;;;1.30;;
57401;SDS011;43226;51.110;6.998;2023-07-29T11:44:02;2.50;;;1.03;;
57401;SDS011;43226;51.110;6.998;2023-07-29T11:46:29;1.37;;;1.27;;
57401;SDS011;43226;51.110;6.998;2023-07-29T11:48:54;2.87;;;1.60;;
57401;SDS011;43226;51.110;6.998;2023-07-29T11:51:20;2.20;;;1.40;;
57401;SDS011;43226;51.110;6.998;2023-07-29T11:53:46;1.53;;;1.20;;
57401;SDS011;43226;51.110;6.998;2023-07-29T11:56:11;4.40;;;1.43;;
57401;SDS011;43226;51.110;6.998;2023-07-29T11:58:38;1.80;;;1.70;;
57401;SDS011;43226;51.110;6.998;2023-07-29T12:01:03;1.53;;;1.43;;
57401;SDS011;43226;51.110;6.998;2023-07-29T12:03:28;1.63;;;1.53;;
57401;SDS011;43226;51.110;6.998;2023-07-29T12:05:54;1.73;;;1.63;;
57401;SDS011;43226;51.110;6.998;2023-07-29T12:08:19;1.50;;;1.40;;
57401;SDS011;43226;51.110;6.998;2023-07-29T12:10:44;3.70;;;1.70;;
57401;SDS011;43226;51.110;6.998;2023-07-29T12:13:10;1.60;;;1.50;;
57401;SDS011;43226;51.110;6.998;2023-07-29T12:15:37;1.40;;;1.30;;
57401;SDS011;43226;51.110;6.998;2023-07-29T12:18:02;1.83;;;1.63;;
57401;SDS011;43226;51.110;6.998;2023-07-29T12:20:29;1.70;;;1.60;;
57401;SDS011;43226;51.110;6.998;2023-07-29T12:22:55;2.13;;;1.40;;
57401;SDS011;43226;51.110;6.998;2023-07-29T12:25:21;1.47;;;1.37;;
57401;SDS011;43226;51.110;6.998;2023-07-29T12:27:46;2.80;;;1.17;;
57401;SDS011;43226;51.110;6.998;2023-07-29T12:30:11;2.70;;;1.30;;
57401;SDS011;43226;51.110;6.998;2023-07-29T12:32:46;1.63;;;1.50;;
57401;SDS011;43226;51.110;6.998;2023-07-29T12:35:11;1.47;;;1.37;;
57401;SDS011;43226;51.110;6.998;2023-07-29T12:37:37;1.23;;;1.13;;
57401;SDS011;43226;51.110;6.998;2023-07-29T12:40:03;1.47;;;1.27;;
57401;SDS011;43226;51.110;6.998;2023-07-29T12:42:29;1.40;;;1.30;;
57401;SDS011;43226;51.110;6.998;2023-07-29T12:44:54;1.40;;;1.30;;
57401;SDS011;43226;51.110;6.998;2023-07-29T12:47:19;3.63;;;1.30;;
57401;SDS011;43226;51.110;6.998;2023-07-29T12:49:45;1.70;;;1.20;;
57401;SDS011;43226;51.110;6.998;2023-07-29T12:52:11;2.93;;;1.60;;
57401;SDS011;43226;51.110;6.998;2023-07-29T12:54:37;2.20;;;1.50;;
57401;SDS011;43226;51.110;6.998;2023-07-29T12:57:02;1.97;;;1.30;;
57401;SDS011;43226;51.110;6.998;2023-07-29T12:59:27;3.17;;;1.70;;
57401;SDS011;43226;51.110;6.998;2023-07-29T13:01:52;1.53;;;1.30;;
57401;SDS011;43226;51.110;6.998;2023-07-29T13:04:18;1.30;;;1.20;;
57401;SDS011;43226;51.110;6.998;2023-07-29T13:06:44;2.17;;;1.37;;
57401;SDS011;43226;51.110;6.998;2023-07-29T13:09:09;0.90;;;0.90;;
57401;SDS011;43226;51.110;6.998;2023-07-29T13:11:34;2.10;;;1.43;;
57401;SDS011;43226;51.110;6.998;2023-07-29T13:13:59;1.40;;;1.20;;
57401;SDS011;43226;51.110;6.998;2023-07-29T13:16:25;4.43;;;1.63;;
57401;SDS011;43226;51.110;6.998;2023-07-29T13:18:50;1.90;;;1.30;;
57401;SDS011;43226;51.110;6.998;2023-07-29T13:21:16;4.93;;;1.33;;
57401;SDS011;43226;51.110;6.998;2023-07-29T13:23:41;2.23;;;0.97;;
57401;SDS011;43226;51.110;6.998;2023-07-29T13:26:06;1.50;;;1.15;;
57401;SDS011;43226;51.110;6.998;2023-07-29T13:28:31;1.53;;;1.20;;
57401;SDS011;43226;51.110;6.998;2023-07-29T13:30:56;2.30;;;1.37;;
57401;SDS011;43226;51.110;6.998;2023-07-29T13:33:22;1.70;;;1.33;;
57401;SDS011;43226;51.110;6.998;2023-07-29T13:35:47;1.30;;;1.20;;
57401;SDS011;43226;51.110;6.998;2023-07-29T13:38:12;3.43;;;3.10;;
57401;SDS011;43226;51.110;6.998;2023-07-29T13:40:38;1.10;;;1.00;;
57401;SDS011;43226;51.110;6.998;2023-07-29T13:43:03;1.43;;;1.33;;
57401;SDS011;43226;51.110;6.998;2023-07-29T13:45:29;2.07;;;1.57;;
57401;SDS011;43226;51.110;6.998;2023-07-29T13:47:54;1.40;;;1.20;;
57401;SDS011;43226;51.110;6.998;2023-07-29T13:50:19;1.97;;;1.50;;
57401;SDS011;43226;51.110;6.998;2023-07-29T13:52:44;1.33;;;1.23;;
57401;SDS011;43226;51.110;6.998;2023-07-29T13:55:10;1.53;;;1.37;;
57401;SDS011;43226;51.110;6.998;2023-07-29T13:57:36;1.50;;;1.40;;
57401;SDS011;43226;51.110;6.998;2023-07-29T14:00:01;2.37;;;2.00;;
57401;SDS011;43226;51.110;6.998;2023-07-29T14:02:27;1.70;;;1.57;;
57401;SDS011;43226;51.110;6.998;2023-07-29T14:04:52;3.37;;;1.53;;
57401;SDS011;43226;51.110;6.998;2023-07-29T14:07:17;1.97;;;1.73;;
57401;SDS011;43226;51.110;6.998;2023-07-29T14:09:43;2.00;;;1.60;;
57401;SDS011;43226;51.110;6.998;2023-07-29T14:12:08;1.77;;;1.63;;
57401;SDS011;43226;51.110;6.998;2023-07-29T14:14:37;5.90;;;2.13;;
57401;SDS011;43226;51.110;6.998;2023-07-29T14:17:02;2.43;;;1.97;;
57401;SDS011;43226;51.110;6.998;2023-07-29T14:19:27;2.00;;;1.73;;
57401;SDS011;43226;51.110;6.998;2023-07-29T14:21:52;1.87;;;1.43;;
57401;SDS011;43226;51.110;6.998;2023-07-29T14:24:18;1.67;;;1.50;;
57401;SDS011;43226;51.110;6.998;2023-07-29T14:26:44;4.67;;;1.80;;
57401;SDS011;43226;51.110;6.998;2023-07-29T14:29:09;4.27;;;1.90;;
57401;SDS011;43226;51.110;6.998;2023-07-29T14:31:35;1.70;;;1.20;;
57401;SDS011;43226;51.110;6.998;2023-07-29T14:34:01;2.03;;;1.47;;
57401;SDS011;43226;51.110;6.998;2023-07-29T14:36:26;1.73;;;1.33;;
57401;SDS011;43226;51.110;6.998;2023-07-29T14:38:51;1.70;;;1.60;;
57401;SDS011;43226;51.110;6.998;2023-07-29T14:41:17;1.63;;;1.30;;
57401;SDS011;43226;51.110;6.998;2023-07-29T14:43:42;2.23;;;1.87;;
57401;SDS011;43226;51.110;6.998;2023-07-29T14:46:07;1.80;;;1.50;;
57401;SDS011;43226;51.110;6.998;2023-07-29T14:48:32;1.60;;;1.50;;
57401;SDS011;43226;51.110;6.998;2023-07-29T14:50:57;1.90;;;1.40;;
57401;SDS011;43226;51.110;6.998;2023-07-29T14:53:23;2.25;;;1.77;;